createdAt,value
2022-10-30T00:00:26.499Z,7.38
2022-10-30T00:01:08.135Z,7.68
2022-10-30T00:01:49.917Z,6.82
2022-10-30T00:02:31.714Z,6.57
2022-10-30T00:03:14.989Z,7.10
2022-10-30T00:03:57.648Z,7.30
2022-10-30T00:04:39.296Z,6.82
2022-10-30T00:05:21.227Z,6.60
2022-10-30T00:06:06.478Z,6.97
2022-10-30T00:06:49.175Z,6.60
2022-10-30T00:07:30.816Z,6.90
2022-10-30T00:08:14.467Z,7.05
2022-10-30T00:08:56.115Z,6.88
2022-10-30T00:09:37.756Z,6.65
2022-10-30T00:10:19.455Z,6.75
2022-10-30T00:11:12.577Z,6.25
2022-10-30T00:11:54.372Z,6.72
2022-10-30T00:12:36.481Z,7.05
2022-10-30T00:13:19.421Z,6.60
2022-10-30T00:14:01.034Z,6.30
2022-10-30T00:14:42.753Z,6.60
2022-10-30T00:15:24.402Z,6.90
2022-10-30T00:16:08.017Z,7.93
2022-10-30T00:16:49.699Z,7.70
2022-10-30T00:17:31.509Z,7.70
2022-10-30T00:18:14.278Z,7.68
2022-10-30T00:18:55.968Z,7.10
2022-10-30T00:19:37.609Z,7.32
2022-10-30T00:20:19.318Z,7.72
2022-10-30T00:21:09.839Z,7.68
2022-10-30T00:21:51.519Z,6.80
2022-10-30T00:22:34.609Z,6.63
2022-10-30T00:23:16.327Z,7.30
2022-10-30T00:23:57.974Z,6.95
2022-10-30T00:24:39.680Z,6.75
2022-10-30T00:25:21.372Z,6.97
2022-10-30T00:26:04.803Z,6.80
2022-10-30T00:26:46.505Z,6.90
2022-10-30T00:27:28.289Z,6.78
2022-10-30T00:28:09.989Z,7.00
2022-10-30T00:28:53.281Z,7.10
2022-10-30T00:29:34.921Z,7.07
2022-10-30T00:30:17.350Z,7.20
2022-10-30T00:31:03.641Z,7.15
2022-10-30T00:31:45.277Z,7.30
2022-10-30T00:32:27.776Z,7.03
2022-10-30T00:33:09.419Z,7.20
2022-10-30T00:33:52.235Z,7.80
2022-10-30T00:34:33.873Z,7.00
2022-10-30T00:35:15.692Z,7.35
2022-10-30T00:35:57.640Z,7.75
2022-10-30T00:36:39.270Z,7.28
2022-10-30T00:37:20.936Z,7.10
2022-10-30T00:38:02.849Z,7.20
2022-10-30T00:38:44.545Z,7.20
2022-10-30T00:39:26.338Z,7.68
2022-10-30T00:40:12.804Z,6.88
2022-10-30T00:40:54.743Z,7.35
2022-10-30T00:41:37.077Z,7.00
2022-10-30T00:42:18.701Z,7.00
2022-10-30T00:43:00.313Z,6.60
2022-10-30T00:43:42.365Z,7.35
2022-10-30T00:44:44.759Z,7.33
2022-10-30T00:45:26.436Z,7.00
2022-10-30T00:46:16.541Z,7.90
2022-10-30T00:47:04.260Z,7.03
2022-10-30T00:47:58.933Z,7.32
2022-10-30T00:48:42.561Z,7.07
2022-10-30T00:49:24.670Z,6.93
2022-10-30T00:50:12.987Z,6.60
2022-10-30T00:50:55.389Z,7.82
2022-10-30T00:51:39.261Z,7.15
2022-10-30T00:52:24.244Z,7.32
2022-10-30T00:53:14.502Z,7.10
2022-10-30T00:53:58.407Z,7.20
2022-10-30T00:54:40.632Z,6.70
2022-10-30T00:55:27.855Z,7.55
2022-10-30T00:56:12.034Z,7.65
2022-10-30T00:56:54.662Z,7.47
2022-10-30T00:57:38.254Z,7.20
2022-10-30T00:58:25.482Z,8.23
2022-10-30T00:59:15.966Z,7.60
2022-10-30T00:59:57.733Z,6.43
2022-10-30T01:00:42.971Z,7.50
2022-10-30T01:01:27.057Z,7.60
2022-10-30T01:02:09.565Z,7.07
2022-10-30T01:02:52.664Z,7.40
2022-10-30T01:03:35.748Z,7.75
2022-10-30T01:04:17.714Z,7.50
2022-10-30T01:05:00.931Z,7.60
2022-10-30T01:05:47.433Z,7.18
2022-10-30T01:06:30.145Z,7.35
2022-10-30T01:07:15.932Z,8.00
2022-10-30T01:07:57.863Z,8.52
2022-10-30T01:08:40.199Z,8.20
2022-10-30T01:09:23.068Z,7.38
2022-10-30T01:10:05.340Z,6.88
2022-10-30T01:10:48.066Z,7.10
2022-10-30T01:11:29.731Z,7.30
2022-10-30T01:12:11.363Z,7.60
2022-10-30T01:12:55.461Z,8.05
2022-10-30T01:13:39.746Z,8.35
2022-10-30T01:14:21.908Z,8.10
2022-10-30T01:15:03.938Z,8.00
2022-10-30T01:15:53.958Z,7.00
2022-10-30T01:16:54.330Z,7.68
2022-10-30T01:17:47.927Z,8.02
2022-10-30T01:18:35.355Z,7.95
2022-10-30T01:19:26.664Z,8.05
2022-10-30T01:20:31.306Z,8.00
2022-10-30T01:21:45.042Z,8.27
2022-10-30T01:22:51.283Z,7.40
2022-10-30T01:24:09.391Z,7.00
2022-10-30T01:24:53.843Z,7.90
2022-10-30T01:25:59.456Z,7.75
2022-10-30T01:26:59.061Z,7.18
2022-10-30T01:28:04.378Z,7.75
2022-10-30T01:29:11.053Z,7.55
2022-10-30T01:30:23.436Z,7.70
2022-10-30T01:31:40.683Z,7.90
2022-10-30T01:32:39.540Z,7.70
2022-10-30T01:33:33.508Z,7.60
2022-10-30T01:34:20.197Z,7.18
2022-10-30T01:35:35.204Z,7.50
2022-10-30T01:36:43.111Z,7.90
2022-10-30T01:37:47.914Z,7.35
2022-10-30T01:38:32.036Z,7.10
2022-10-30T01:39:21.313Z,7.25
2022-10-30T01:40:14.849Z,7.53
2022-10-30T01:40:56.471Z,7.70
2022-10-30T01:41:38.167Z,7.63
2022-10-30T01:42:54.534Z,8.52
2022-10-30T01:43:37.556Z,8.02
2022-10-30T01:44:30.743Z,7.95
2022-10-30T01:45:42.117Z,7.40
2022-10-30T01:46:53.771Z,8.00
2022-10-30T01:47:46.439Z,7.45
2022-10-30T01:48:43.292Z,7.15
2022-10-30T01:49:42.812Z,8.75
2022-10-30T01:50:38.653Z,8.07
2022-10-30T01:51:50.531Z,7.80
2022-10-30T01:52:41.340Z,8.35
2022-10-30T01:53:29.707Z,8.18
2022-10-30T01:54:25.434Z,7.65
2022-10-30T01:55:29.397Z,8.35
2022-10-30T01:56:21.747Z,8.10
2022-10-30T01:57:23.129Z,8.15
2022-10-30T01:58:40.956Z,7.53
2022-10-30T01:59:44.440Z,8.10
2022-10-30T02:00:27.394Z,7.78
2022-10-30T02:01:09.202Z,8.02
2022-10-30T02:01:51.146Z,7.72
2022-10-30T02:02:33.262Z,8.15
2022-10-30T02:03:15.412Z,7.97
2022-10-30T02:03:57.244Z,8.10
2022-10-30T02:04:39.338Z,7.60
2022-10-30T02:05:43.165Z,7.53
2022-10-30T02:06:25.800Z,8.50
2022-10-30T02:07:07.556Z,7.90
2022-10-30T02:07:49.214Z,8.48
2022-10-30T02:08:30.952Z,8.90
2022-10-30T02:09:16.141Z,8.52
2022-10-30T02:09:58.196Z,7.65
2022-10-30T02:10:42.404Z,7.85
2022-10-30T02:11:27.579Z,7.68
2022-10-30T02:12:10.056Z,8.65
2022-10-30T02:12:51.752Z,8.27
2022-10-30T02:13:33.451Z,7.77
2022-10-30T02:14:24.543Z,8.25
2022-10-30T02:15:06.922Z,7.60
2022-10-30T02:15:49.748Z,7.15
2022-10-30T02:16:35.161Z,7.88
2022-10-30T02:17:17.781Z,8.60
2022-10-30T02:18:00.145Z,8.07
2022-10-30T02:18:42.663Z,7.80
2022-10-30T02:19:24.406Z,8.43
2022-10-30T02:20:07.170Z,8.05
2022-10-30T02:20:49.180Z,8.13
2022-10-30T02:21:31.067Z,8.15
2022-10-30T02:22:12.881Z,8.50
2022-10-30T02:22:58.982Z,7.70
2022-10-30T02:23:41.256Z,8.15
2022-10-30T02:24:22.944Z,8.98
2022-10-30T02:25:04.855Z,8.63
2022-10-30T02:25:46.528Z,8.00
2022-10-30T02:26:28.186Z,7.93
2022-10-30T02:27:10.127Z,7.97
2022-10-30T02:27:51.764Z,7.20
2022-10-30T02:28:33.465Z,6.63
2022-10-30T02:29:15.152Z,7.65
2022-10-30T02:29:56.808Z,9.30
2022-10-30T02:30:38.869Z,9.07
2022-10-30T02:31:20.557Z,7.53
2022-10-30T02:32:02.680Z,7.95
2022-10-30T02:32:44.339Z,7.35
2022-10-30T02:33:26.049Z,7.70
2022-10-30T02:34:07.809Z,7.70
2022-10-30T02:34:49.441Z,7.43
2022-10-30T02:35:31.193Z,8.45
2022-10-30T02:36:15.425Z,8.60
2022-10-30T02:36:57.108Z,8.60
2022-10-30T02:37:39.562Z,7.97
2022-10-30T02:38:21.224Z,8.10
2022-10-30T02:39:03.037Z,8.13
2022-10-30T02:39:44.682Z,8.20
2022-10-30T02:40:26.324Z,8.18
2022-10-30T02:41:07.974Z,7.75
2022-10-30T02:41:49.862Z,8.15
2022-10-30T02:42:31.510Z,7.70
2022-10-30T02:43:13.159Z,7.40
2022-10-30T02:43:54.993Z,7.53
2022-10-30T02:44:36.620Z,8.38
2022-10-30T02:45:18.257Z,8.00
2022-10-30T02:46:00.192Z,7.90
2022-10-30T02:46:41.984Z,8.25
2022-10-30T02:47:23.605Z,8.55
2022-10-30T02:48:05.385Z,8.35
2022-10-30T02:48:47.239Z,8.20
2022-10-30T02:49:28.883Z,8.43
2022-10-30T02:50:10.508Z,7.20
2022-10-30T02:50:52.122Z,7.85
2022-10-30T02:51:34.274Z,8.02
2022-10-30T02:52:15.944Z,7.93
2022-10-30T02:52:59.572Z,7.80
2022-10-30T02:53:41.711Z,7.55
2022-10-30T02:54:23.405Z,7.50
2022-10-30T02:55:05.745Z,7.93
2022-10-30T02:55:47.399Z,8.13
2022-10-30T02:56:29.120Z,7.85
2022-10-30T02:57:10.813Z,8.20
2022-10-30T02:57:52.432Z,8.30
2022-10-30T02:58:34.295Z,8.55
2022-10-30T02:59:15.967Z,8.00
2022-10-30T02:59:57.634Z,7.80
2022-10-30T03:00:39.278Z,7.40
2022-10-30T03:01:21.023Z,9.13
2022-10-30T03:02:02.885Z,9.05
2022-10-30T03:02:44.643Z,8.43
2022-10-30T03:03:26.291Z,8.13
2022-10-30T03:04:07.932Z,8.52
2022-10-30T03:04:49.618Z,8.80
2022-10-30T03:05:31.383Z,8.27
2022-10-30T03:06:15.570Z,8.30
2022-10-30T03:06:57.275Z,8.50
2022-10-30T03:07:38.910Z,8.20
2022-10-30T03:08:20.537Z,7.88
2022-10-30T03:09:02.190Z,8.27
2022-10-30T03:09:43.865Z,8.40
2022-10-30T03:10:25.517Z,8.43
2022-10-30T03:11:10.429Z,8.02
2022-10-30T03:11:52.064Z,7.97
2022-10-30T03:12:33.722Z,8.00
2022-10-30T03:13:15.353Z,8.10
2022-10-30T03:13:57.050Z,7.80
2022-10-30T03:14:38.673Z,8.18
2022-10-30T03:15:20.577Z,8.57
2022-10-30T03:16:04.593Z,8.70
2022-10-30T03:16:46.253Z,8.35
2022-10-30T03:17:27.924Z,7.95
2022-10-30T03:18:09.594Z,7.90
2022-10-30T03:18:52.484Z,7.97
2022-10-30T03:19:34.130Z,7.63
2022-10-30T03:20:15.850Z,7.15
2022-10-30T03:20:59.151Z,7.80
2022-10-30T03:21:40.842Z,8.10
2022-10-30T03:22:22.572Z,8.25
2022-10-30T03:23:04.192Z,8.38
2022-10-30T03:23:46.085Z,7.40
2022-10-30T03:24:27.722Z,8.15
2022-10-30T03:25:09.643Z,8.50
2022-10-30T03:25:55.540Z,7.50
2022-10-30T03:26:37.197Z,7.53
2022-10-30T03:27:18.843Z,8.65
2022-10-30T03:28:00.901Z,8.45
2022-10-30T03:28:43.208Z,7.72
2022-10-30T03:29:24.904Z,8.27
2022-10-30T03:30:07.143Z,8.30
2022-10-30T03:30:49.388Z,7.90
2022-10-30T03:31:32.469Z,7.72
2022-10-30T03:32:14.230Z,7.93
2022-10-30T03:32:56.379Z,8.43
2022-10-30T03:33:39.124Z,8.40
2022-10-30T03:34:20.767Z,7.70
2022-10-30T03:35:02.436Z,8.82
2022-10-30T03:35:46.630Z,8.43
2022-10-30T03:36:28.275Z,8.45
2022-10-30T03:37:09.921Z,9.13
2022-10-30T03:37:51.555Z,8.07
2022-10-30T03:38:33.469Z,8.50
2022-10-30T03:39:15.122Z,7.97
2022-10-30T03:39:56.747Z,7.70
2022-10-30T03:40:38.565Z,8.05
2022-10-30T03:41:20.229Z,7.93
2022-10-30T03:42:01.863Z,7.90
2022-10-30T03:42:43.522Z,7.57
2022-10-30T03:43:25.427Z,7.20
2022-10-30T03:44:07.073Z,7.90
2022-10-30T03:44:48.707Z,7.93
2022-10-30T03:45:31.509Z,7.38
2022-10-30T03:46:13.283Z,7.97
2022-10-30T03:46:54.924Z,8.00
2022-10-30T03:47:40.616Z,7.53
2022-10-30T03:48:24.441Z,7.38
2022-10-30T03:49:06.088Z,7.70
2022-10-30T03:49:47.709Z,8.13
2022-10-30T03:50:29.570Z,7.72
2022-10-30T03:51:11.197Z,7.78
2022-10-30T03:51:52.831Z,7.20
2022-10-30T03:52:34.444Z,7.63
2022-10-30T03:53:16.325Z,7.88
2022-10-30T03:53:58.088Z,7.88
2022-10-30T03:54:39.739Z,8.32
2022-10-30T03:55:21.833Z,8.68
2022-10-30T03:56:04.583Z,8.43
2022-10-30T03:56:46.217Z,7.60
2022-10-30T03:57:27.873Z,7.70
2022-10-30T03:58:09.559Z,8.07
2022-10-30T03:58:51.235Z,7.75
2022-10-30T03:59:32.863Z,8.02
2022-10-30T04:00:15.947Z,7.40
2022-10-30T04:01:07.552Z,8.10
2022-10-30T04:01:49.417Z,8.07
2022-10-30T04:02:31.272Z,8.05
2022-10-30T04:03:12.892Z,8.05
2022-10-30T04:03:54.635Z,8.00
2022-10-30T04:04:36.291Z,7.63
2022-10-30T04:05:20.455Z,8.20
2022-10-30T04:06:02.426Z,8.40
2022-10-30T04:06:44.065Z,7.85
2022-10-30T04:07:25.694Z,8.00
2022-10-30T04:08:12.468Z,7.40
2022-10-30T04:08:55.455Z,7.80
2022-10-30T04:09:37.070Z,7.13
2022-10-30T04:10:21.143Z,7.53
2022-10-30T04:11:05.739Z,7.85
2022-10-30T04:11:47.442Z,7.53
2022-10-30T04:12:29.068Z,7.15
2022-10-30T04:13:11.679Z,7.88
2022-10-30T04:13:53.315Z,7.75
2022-10-30T04:14:34.966Z,8.02
2022-10-30T04:15:16.835Z,7.82
2022-10-30T04:15:58.576Z,8.20
2022-10-30T04:16:40.248Z,8.02
2022-10-30T04:17:21.872Z,8.00
2022-10-30T04:18:04.133Z,7.57
2022-10-30T04:18:45.823Z,7.60
2022-10-30T04:19:27.464Z,7.80
2022-10-30T04:20:09.437Z,7.47
2022-10-30T04:20:51.091Z,7.45
2022-10-30T04:21:32.756Z,7.90
2022-10-30T04:22:14.380Z,8.30
2022-10-30T04:23:10.398Z,8.18
2022-10-30T04:23:53.886Z,8.30
2022-10-30T04:24:35.552Z,8.25
2022-10-30T04:25:17.174Z,7.97
2022-10-30T04:26:01.510Z,7.43
2022-10-30T04:26:43.165Z,7.80
2022-10-30T04:27:24.821Z,8.27
2022-10-30T04:28:06.542Z,7.97
2022-10-30T04:28:48.512Z,8.45
2022-10-30T04:29:30.200Z,7.95
2022-10-30T04:30:13.204Z,7.45
2022-10-30T04:30:54.836Z,8.00
2022-10-30T04:31:36.575Z,7.43
2022-10-30T04:32:19.259Z,7.75
2022-10-30T04:33:03.843Z,7.72
2022-10-30T04:33:45.487Z,8.18
2022-10-30T04:34:27.135Z,8.60
2022-10-30T04:35:09.107Z,8.57
2022-10-30T04:35:50.737Z,7.85
2022-10-30T04:36:33.992Z,7.97
2022-10-30T04:37:15.623Z,8.20
2022-10-30T04:37:59.665Z,8.63
2022-10-30T04:38:41.292Z,8.18
2022-10-30T04:39:22.927Z,8.55
2022-10-30T04:40:05.081Z,8.73
2022-10-30T04:40:46.717Z,9.30
2022-10-30T04:41:28.610Z,9.05
2022-10-30T04:42:10.271Z,8.10
2022-10-30T04:42:52.350Z,7.72
2022-10-30T04:43:33.995Z,7.70
2022-10-30T04:44:15.633Z,7.20
2022-10-30T04:44:57.257Z,7.65
2022-10-30T04:45:39.801Z,7.17
2022-10-30T04:46:21.433Z,7.22
2022-10-30T04:47:03.058Z,8.63
2022-10-30T04:47:45.221Z,9.15
2022-10-30T04:48:27.314Z,8.77
2022-10-30T04:49:09.250Z,8.13
2022-10-30T04:49:50.898Z,7.72
2022-10-30T04:50:33.865Z,7.60
2022-10-30T04:51:15.987Z,7.65
2022-10-30T04:51:57.635Z,7.82
2022-10-30T04:52:39.609Z,7.55
2022-10-30T04:53:21.252Z,7.45
2022-10-30T04:54:02.913Z,7.10
2022-10-30T04:54:45.077Z,7.93
2022-10-30T04:55:27.371Z,8.90
2022-10-30T04:56:09.198Z,8.18
2022-10-30T04:56:50.849Z,7.82
2022-10-30T04:57:32.710Z,7.60
2022-10-30T04:58:14.418Z,8.10
2022-10-30T04:58:56.033Z,7.55
2022-10-30T04:59:37.747Z,7.72
2022-10-30T05:00:19.420Z,8.00
2022-10-30T05:01:06.329Z,7.35
2022-10-30T05:01:48.153Z,7.85
2022-10-30T05:02:30.181Z,8.05
2022-10-30T05:03:19.745Z,8.00
2022-10-30T05:04:01.996Z,8.50
2022-10-30T05:04:43.639Z,8.40
2022-10-30T05:05:25.263Z,7.78
2022-10-30T05:06:14.088Z,7.30
2022-10-30T05:06:55.784Z,7.60
2022-10-30T05:07:37.406Z,8.00
2022-10-30T05:08:19.024Z,8.10
2022-10-30T05:09:00.760Z,8.00
2022-10-30T05:09:42.511Z,8.20
2022-10-30T05:10:24.297Z,7.50
2022-10-30T05:11:06.221Z,7.63
2022-10-30T05:11:47.900Z,7.75
2022-10-30T05:12:29.574Z,8.30
2022-10-30T05:13:12.354Z,8.30
2022-10-30T05:13:53.995Z,8.27
2022-10-30T05:14:35.892Z,8.60
2022-10-30T05:15:17.573Z,7.95
2022-10-30T05:15:59.227Z,7.35
2022-10-30T05:16:40.851Z,7.95
2022-10-30T05:17:22.564Z,8.23
2022-10-30T05:18:04.325Z,8.50
2022-10-30T05:18:46.038Z,8.32
2022-10-30T05:19:27.775Z,7.65
2022-10-30T05:20:10.593Z,8.25
2022-10-30T05:20:53.994Z,8.40
2022-10-30T05:21:35.708Z,8.90
2022-10-30T05:22:17.337Z,8.35
2022-10-30T05:22:59.967Z,8.00
2022-10-30T05:23:41.598Z,7.90
2022-10-30T05:24:23.272Z,7.90
2022-10-30T05:25:05.338Z,8.23
2022-10-30T05:25:47.054Z,8.10
2022-10-30T05:26:28.726Z,7.90
2022-10-30T05:27:10.348Z,8.10
2022-10-30T05:27:57.419Z,8.40
2022-10-30T05:28:40.170Z,8.02
2022-10-30T05:29:21.801Z,8.10
2022-10-30T05:30:03.641Z,9.18
2022-10-30T05:30:45.270Z,8.80
2022-10-30T05:31:26.924Z,8.52
2022-10-30T05:32:08.624Z,8.13
2022-10-30T05:32:50.291Z,8.40
2022-10-30T05:33:31.981Z,7.68
2022-10-30T05:34:14.345Z,7.93
2022-10-30T05:34:56.011Z,7.90
2022-10-30T05:35:38.656Z,7.90
2022-10-30T05:36:20.347Z,7.88
2022-10-30T05:37:01.998Z,7.40
2022-10-30T05:37:43.689Z,9.52
2022-10-30T05:38:25.345Z,9.00
2022-10-30T05:39:07.043Z,8.80
2022-10-30T05:39:48.878Z,8.77
2022-10-30T05:40:30.518Z,8.50
2022-10-30T05:41:12.484Z,8.05
2022-10-30T05:41:54.261Z,7.90
2022-10-30T05:42:35.903Z,7.97
2022-10-30T05:43:17.593Z,7.80
2022-10-30T05:43:59.326Z,7.50
2022-10-30T05:44:59.708Z,8.18
2022-10-30T05:45:42.678Z,7.60
2022-10-30T05:46:24.345Z,7.65
2022-10-30T05:47:06.084Z,7.60
2022-10-30T05:48:05.929Z,7.45
2022-10-30T05:48:47.604Z,7.83
2022-10-30T05:49:29.287Z,7.60
2022-10-30T05:50:14.410Z,7.80
2022-10-30T05:50:56.781Z,8.35
2022-10-30T05:51:40.625Z,7.63
2022-10-30T05:52:22.529Z,7.60
2022-10-30T05:53:05.224Z,8.32
2022-10-30T05:53:49.194Z,7.95
2022-10-30T05:54:30.859Z,7.97
2022-10-30T05:55:12.492Z,8.40
2022-10-30T05:55:58.270Z,8.15
2022-10-30T05:56:39.958Z,8.13
2022-10-30T05:57:21.620Z,8.48
2022-10-30T05:58:05.308Z,8.05
2022-10-30T05:58:50.116Z,8.00
2022-10-30T05:59:31.784Z,7.53
2022-10-30T06:00:14.132Z,7.80
2022-10-30T06:00:55.817Z,8.00
2022-10-30T06:01:37.499Z,8.20
2022-10-30T06:02:19.554Z,7.60
2022-10-30T06:03:06.076Z,7.75
2022-10-30T06:03:47.728Z,8.73
2022-10-30T06:04:29.381Z,8.32
2022-10-30T06:05:11.085Z,7.60
2022-10-30T06:05:52.751Z,7.65
2022-10-30T06:06:34.428Z,9.10
2022-10-30T06:07:16.322Z,9.15
2022-10-30T06:07:57.995Z,8.13
2022-10-30T06:08:39.662Z,8.38
2022-10-30T06:09:21.327Z,8.63
2022-10-30T06:10:03.101Z,8.50
2022-10-30T06:10:44.837Z,8.40
2022-10-30T06:11:26.529Z,8.20
2022-10-30T06:12:08.289Z,8.70
2022-10-30T06:13:07.773Z,8.98
2022-10-30T06:13:49.483Z,8.80
2022-10-30T06:14:31.234Z,8.00
2022-10-30T06:15:12.986Z,7.80
2022-10-30T06:15:56.143Z,8.10
2022-10-30T06:16:37.927Z,7.90
2022-10-30T06:17:19.572Z,8.45
2022-10-30T06:18:01.888Z,8.02
2022-10-30T06:18:43.903Z,7.68
2022-10-30T06:19:25.552Z,7.75
2022-10-30T06:20:07.544Z,9.15
2022-10-30T06:20:49.482Z,8.15
2022-10-30T06:21:31.152Z,8.23
2022-10-30T06:22:12.797Z,8.73
2022-10-30T06:22:54.711Z,8.75
2022-10-30T06:23:36.345Z,8.05
2022-10-30T06:24:17.977Z,8.13
2022-10-30T06:24:59.706Z,7.82
2022-10-30T06:25:41.699Z,8.80
2022-10-30T06:26:23.370Z,8.77
2022-10-30T06:27:04.988Z,7.70
2022-10-30T06:27:46.741Z,8.32
2022-10-30T06:28:28.403Z,8.60
2022-10-30T06:29:10.074Z,8.20
2022-10-30T06:29:54.781Z,8.20
2022-10-30T06:30:36.456Z,7.95
2022-10-30T06:31:18.165Z,8.15
2022-10-30T06:32:02.289Z,8.50
2022-10-30T06:32:48.776Z,8.63
2022-10-30T06:33:30.758Z,9.13
2022-10-30T06:34:12.458Z,8.55
2022-10-30T06:34:54.106Z,7.80
2022-10-30T06:35:35.875Z,7.80
2022-10-30T06:36:17.551Z,7.70
2022-10-30T06:36:59.261Z,8.48
2022-10-30T06:37:48.398Z,8.48
2022-10-30T06:38:30.048Z,7.80
2022-10-30T06:39:11.748Z,8.02
2022-10-30T06:39:53.467Z,9.07
2022-10-30T06:40:35.120Z,8.00
2022-10-30T06:41:17.589Z,7.65
2022-10-30T06:41:59.209Z,8.50
2022-10-30T06:42:48.835Z,8.43
2022-10-30T06:43:30.554Z,8.25
2022-10-30T06:44:12.197Z,7.72
2022-10-30T06:44:54.220Z,7.85
2022-10-30T06:45:35.897Z,8.98
2022-10-30T06:46:17.537Z,7.78
2022-10-30T06:46:59.264Z,8.80
2022-10-30T06:47:41.041Z,8.90
2022-10-30T06:48:23.744Z,8.10
2022-10-30T06:49:05.361Z,7.85
2022-10-30T06:49:46.992Z,8.20
2022-10-30T06:50:28.690Z,7.47
2022-10-30T06:51:13.515Z,7.80
2022-10-30T06:51:55.149Z,8.10
2022-10-30T06:52:37.305Z,8.40
2022-10-30T06:53:18.928Z,8.50
2022-10-30T06:54:00.618Z,8.60
2022-10-30T06:54:42.301Z,8.55
2022-10-30T06:55:24.063Z,9.20
2022-10-30T06:56:05.871Z,8.38
2022-10-30T06:56:51.659Z,8.52
2022-10-30T06:57:33.318Z,8.52
2022-10-30T06:58:15.012Z,7.45
2022-10-30T06:58:56.633Z,7.32
2022-10-30T06:59:38.276Z,7.75
2022-10-30T07:00:19.935Z,9.40
2022-10-30T07:01:01.623Z,9.68
2022-10-30T07:01:43.461Z,9.52
2022-10-30T07:02:25.463Z,8.70
2022-10-30T07:03:08.755Z,9.43
2022-10-30T07:03:50.422Z,8.90
2022-10-30T07:04:32.071Z,8.63
2022-10-30T07:05:13.779Z,9.30
2022-10-30T07:05:55.398Z,10.05
2022-10-30T07:06:37.052Z,8.80
2022-10-30T07:07:18.765Z,8.40
2022-10-30T07:08:00.416Z,8.68
2022-10-30T07:08:42.036Z,8.38
2022-10-30T07:09:23.713Z,8.68
2022-10-30T07:10:05.792Z,8.68
2022-10-30T07:10:47.416Z,8.23
2022-10-30T07:11:29.271Z,8.63
2022-10-30T07:12:10.900Z,8.77
2022-10-30T07:12:54.133Z,9.02
2022-10-30T07:13:35.776Z,8.85
2022-10-30T07:14:17.396Z,8.98
2022-10-30T07:14:59.110Z,9.90
2022-10-30T07:16:27.946Z,9.80
2022-10-30T07:17:09.991Z,9.07
2022-10-30T07:17:59.728Z,9.25
2022-10-30T07:18:41.583Z,8.77
2022-10-30T07:19:23.816Z,9.07
2022-10-30T07:20:05.964Z,8.50
2022-10-30T07:20:47.652Z,10.10
2022-10-30T07:21:29.620Z,9.30
2022-10-30T07:22:11.274Z,9.48
2022-10-30T07:22:53.074Z,8.60
2022-10-30T07:23:34.714Z,9.18
2022-10-30T07:24:16.506Z,9.00
2022-10-30T07:24:58.127Z,8.40
2022-10-30T07:25:39.761Z,8.50
2022-10-30T07:26:21.460Z,8.40
2022-10-30T07:27:03.165Z,8.45
2022-10-30T07:27:46.816Z,8.73
2022-10-30T07:28:28.439Z,8.60
2022-10-30T07:29:10.196Z,8.10
2022-10-30T07:29:51.828Z,8.07
2022-10-30T07:30:33.462Z,8.85
2022-10-30T07:31:20.132Z,9.15
2022-10-30T07:32:12.807Z,9.35
2022-10-30T07:33:02.574Z,9.05
2022-10-30T07:33:44.642Z,8.50
2022-10-30T07:34:26.308Z,9.32
2022-10-30T07:35:09.452Z,8.70
2022-10-30T07:35:51.216Z,8.35
2022-10-30T07:36:33.028Z,8.90
2022-10-30T07:37:14.658Z,9.52
2022-10-30T07:37:56.625Z,10.15
2022-10-30T07:38:38.369Z,9.07
2022-10-30T07:39:19.993Z,9.90
2022-10-30T07:40:02.081Z,9.90
2022-10-30T07:40:43.987Z,9.45
2022-10-30T07:41:25.646Z,9.10
2022-10-30T07:42:07.288Z,8.85
2022-10-30T07:42:48.985Z,9.38
2022-10-30T07:43:30.607Z,9.30
2022-10-30T07:44:12.295Z,9.05
2022-10-30T07:44:53.962Z,10.13
2022-10-30T07:45:35.697Z,9.93
2022-10-30T07:46:17.345Z,9.60
2022-10-30T07:46:58.966Z,10.10
2022-10-30T07:47:44.020Z,9.48
2022-10-30T07:48:25.641Z,8.85
2022-10-30T07:49:07.269Z,8.98
2022-10-30T07:49:48.910Z,9.35
2022-10-30T07:50:30.970Z,9.45
2022-10-30T07:51:15.097Z,8.90
2022-10-30T07:51:56.755Z,9.10
2022-10-30T07:52:38.506Z,9.40
2022-10-30T07:53:20.146Z,8.85
2022-10-30T07:54:01.778Z,8.93
2022-10-30T07:54:43.481Z,8.60
2022-10-30T07:55:25.098Z,8.70
2022-10-30T07:56:07.064Z,8.95
2022-10-30T07:56:48.698Z,9.10
2022-10-30T07:57:37.702Z,8.68
2022-10-30T07:58:19.387Z,9.00
2022-10-30T07:59:00.999Z,9.32
2022-10-30T07:59:42.673Z,9.45
2022-10-30T08:00:24.659Z,9.18
2022-10-30T08:01:06.439Z,9.30
2022-10-30T08:01:49.839Z,9.68
2022-10-30T08:02:32.304Z,11.35
2022-10-30T08:03:14.291Z,10.32
2022-10-30T08:03:55.911Z,10.00
2022-10-30T08:04:37.537Z,10.10
2022-10-30T08:05:19.352Z,9.27
2022-10-30T08:06:01.049Z,8.80
2022-10-30T08:06:42.822Z,8.65
2022-10-30T08:07:24.537Z,9.10
2022-10-30T08:08:07.035Z,9.38
2022-10-30T08:08:48.665Z,9.27
2022-10-30T08:09:30.311Z,8.77
2022-10-30T08:10:12.128Z,8.65
2022-10-30T08:10:53.771Z,8.52
2022-10-30T08:11:35.533Z,8.77
2022-10-30T08:12:17.169Z,8.67
2022-10-30T08:12:58.870Z,8.80
2022-10-30T08:13:40.505Z,7.95
2022-10-30T08:14:22.244Z,8.93
2022-10-30T08:15:04.225Z,9.13
2022-10-30T08:15:45.880Z,8.68
2022-10-30T08:16:27.698Z,8.30
2022-10-30T08:17:10.603Z,7.65
2022-10-30T08:17:52.413Z,7.55
2022-10-30T08:18:34.127Z,8.18
2022-10-30T08:19:15.839Z,7.75
2022-10-30T08:19:57.478Z,7.88
2022-10-30T08:20:39.188Z,7.25
2022-10-30T08:21:21.088Z,8.18
2022-10-30T08:22:02.711Z,8.07
2022-10-30T08:22:55.946Z,7.70
2022-10-30T08:23:37.870Z,7.65
2022-10-30T08:24:19.495Z,8.07
2022-10-30T08:25:01.128Z,7.82
2022-10-30T08:25:42.759Z,7.50
2022-10-30T08:26:24.427Z,8.38
2022-10-30T08:27:06.098Z,8.55
2022-10-30T08:28:07.647Z,8.50
2022-10-30T08:28:49.289Z,7.75
2022-10-30T08:29:31.499Z,8.55
2022-10-30T08:30:13.474Z,8.20
2022-10-30T08:30:55.175Z,7.90
2022-10-30T08:31:36.804Z,8.40
2022-10-30T08:32:18.556Z,8.40
2022-10-30T08:33:02.750Z,7.85
2022-10-30T08:33:44.522Z,8.65
2022-10-30T08:34:27.473Z,8.10
2022-10-30T08:35:09.537Z,8.32
2022-10-30T08:35:52.701Z,7.40
2022-10-30T08:36:34.335Z,8.52
2022-10-30T08:37:17.304Z,9.15
2022-10-30T08:38:00.969Z,7.57
2022-10-30T08:38:42.817Z,7.93
2022-10-30T08:39:24.512Z,7.50
2022-10-30T08:40:07.005Z,7.53
2022-10-30T08:40:49.152Z,8.05
2022-10-30T08:41:30.783Z,7.72
2022-10-30T08:42:12.410Z,7.80
2022-10-30T08:42:55.624Z,8.30
2022-10-30T08:43:38.815Z,7.90
2022-10-30T08:44:20.581Z,8.02
2022-10-30T08:45:02.397Z,8.05
2022-10-30T08:45:44.056Z,8.10
2022-10-30T08:46:25.693Z,7.95
2022-10-30T08:47:07.319Z,7.35
2022-10-30T08:48:00.271Z,7.18
2022-10-30T08:48:42.371Z,7.95
2022-10-30T08:49:24.072Z,7.60
2022-10-30T08:50:05.987Z,7.47
2022-10-30T08:50:47.649Z,7.45
2022-10-30T08:51:33.470Z,7.80
2022-10-30T08:52:15.097Z,8.75
2022-10-30T08:53:00.242Z,8.93
2022-10-30T08:53:42.213Z,7.68
2022-10-30T08:54:23.876Z,7.40
2022-10-30T08:55:06.153Z,6.80
2022-10-30T08:55:47.793Z,7.25
2022-10-30T08:56:29.459Z,8.00
2022-10-30T08:57:11.093Z,8.88
2022-10-30T08:57:52.754Z,8.55
2022-10-30T08:58:34.413Z,8.05
2022-10-30T08:59:17.292Z,8.52
2022-10-30T09:00:03.902Z,7.75
2022-10-30T09:00:49.564Z,7.60
2022-10-30T09:01:36.403Z,8.48
2022-10-30T09:02:18.252Z,8.60
2022-10-30T09:03:00.329Z,7.93
2022-10-30T09:03:44.281Z,8.00
2022-10-30T09:04:25.917Z,7.88
2022-10-30T09:05:09.195Z,8.00
2022-10-30T09:05:51.038Z,7.25
2022-10-30T09:06:32.696Z,7.38
2022-10-30T09:07:14.485Z,7.80
2022-10-30T09:07:59.029Z,8.10
2022-10-30T09:08:40.920Z,7.57
2022-10-30T09:09:23.661Z,7.18
2022-10-30T09:10:06.274Z,7.03
2022-10-30T09:10:47.905Z,7.40
2022-10-30T09:11:29.554Z,7.05
2022-10-30T09:12:11.227Z,7.32
2022-10-30T09:12:57.365Z,7.70
2022-10-30T09:13:39.035Z,7.13
2022-10-30T09:14:20.714Z,7.20
2022-10-30T09:15:02.540Z,7.32
2022-10-30T09:15:44.191Z,8.15
2022-10-30T09:16:25.861Z,8.15
2022-10-30T09:17:07.554Z,8.00
2022-10-30T09:17:59.306Z,7.70
2022-10-30T09:18:42.136Z,7.53
2022-10-30T09:19:24.784Z,7.90
2022-10-30T09:20:06.668Z,8.30
2022-10-30T09:20:51.254Z,8.35
2022-10-30T09:21:32.882Z,8.00
2022-10-30T09:22:14.583Z,8.07
2022-10-30T09:22:56.887Z,7.75
2022-10-30T09:23:38.746Z,7.60
2022-10-30T09:24:20.384Z,7.80
2022-10-30T09:25:02.006Z,8.00
2022-10-30T09:25:43.625Z,7.65
2022-10-30T09:26:25.427Z,7.25
2022-10-30T09:27:07.381Z,8.45
2022-10-30T09:27:49.074Z,7.97
2022-10-30T09:28:30.850Z,7.15
2022-10-30T09:29:12.477Z,7.45
2022-10-30T09:29:54.144Z,7.90
2022-10-30T09:30:35.843Z,8.02
2022-10-30T09:31:17.484Z,7.45
2022-10-30T09:32:00.113Z,7.60
2022-10-30T09:32:41.772Z,7.72
2022-10-30T09:33:23.752Z,7.70
2022-10-30T09:34:05.412Z,7.45
2022-10-30T09:34:47.376Z,6.80
2022-10-30T09:35:29.518Z,7.22
2022-10-30T09:36:11.214Z,8.02
2022-10-30T09:36:53.084Z,7.85
2022-10-30T09:37:38.747Z,7.50
2022-10-30T09:38:20.409Z,7.05
2022-10-30T09:39:02.128Z,7.40
2022-10-30T09:39:43.853Z,7.30
2022-10-30T09:40:43.597Z,7.70